sensor_id;sensor_type;location;lat;lon;timestamp;temperature;humidity
12688;DHT22;6408;59.388;17.798;2023-05-16T00:00:48;12.70;99.90
12688;DHT22;6408;59.388;17.798;2023-05-16T00:03:19;12.80;99.90
12688;DHT22;6408;59.388;17.798;2023-05-16T00:05:47;12.80;99.90
12688;DHT22;6408;59.388;17.798;2023-05-16T00:08:15;12.70;99.90
12688;DHT22;6408;59.388;17.798;2023-05-16T00:10:42;12.60;99.90
12688;DHT22;6408;59.388;17.798;2023-05-16T00:13:10;12.50;99.90
12688;DHT22;6408;59.388;17.798;2023-05-16T00:15:38;12.60;99.90
12688;DHT22;6408;59.388;17.798;2023-05-16T00:18:05;12.60;99.90
12688;DHT22;6408;59.388;17.798;2023-05-16T00:20:36;12.50;99.90
12688;DHT22;6408;59.388;17.798;2023-05-16T00:23:04;12.40;99.90
12688;DHT22;6408;59.388;17.798;2023-05-16T00:25:32;12.40;99.90
12688;DHT22;6408;59.388;17.798;2023-05-16T00:28:00;12.50;99.90
12688;DHT22;6408;59.388;17.798;2023-05-16T00:30:28;12.50;99.90
12688;DHT22;6408;59.388;17.798;2023-05-16T00:32:56;12.50;99.90
12688;DHT22;6408;59.388;17.798;2023-05-16T00:35:24;12.50;99.90
12688;DHT22;6408;59.388;17.798;2023-05-16T00:37:53;12.50;99.90
12688;DHT22;6408;59.388;17.798;2023-05-16T00:40:21;12.40;99.90
12688;DHT22;6408;59.388;17.798;2023-05-16T00:42:49;12.50;99.90
12688;DHT22;6408;59.388;17.798;2023-05-16T00:45:16;12.40;99.90
12688;DHT22;6408;59.388;17.798;2023-05-16T00:47:44;12.40;99.90
12688;DHT22;6408;59.388;17.798;2023-05-16T00:50:11;12.50;99.90
12688;DHT22;6408;59.388;17.798;2023-05-16T00:52:40;12.50;99.90
12688;DHT22;6408;59.388;17.798;2023-05-16T00:55:09;12.50;99.90
12688;DHT22;6408;59.388;17.798;2023-05-16T00:57:37;12.50;99.90
12688;DHT22;6408;59.388;17.798;2023-05-16T01:00:07;12.50;99.90
12688;DHT22;6408;59.388;17.798;2023-05-16T01:02:36;12.50;99.90
12688;DHT22;6408;59.388;17.798;2023-05-16T01:05:04;12.50;99.90
12688;DHT22;6408;59.388;17.798;2023-05-16T01:07:33;12.50;99.90
12688;DHT22;6408;59.388;17.798;2023-05-16T01:10:02;12.50;99.90
12688;DHT22;6408;59.388;17.798;2023-05-16T01:12:36;12.60;99.90
12688;DHT22;6408;59.388;17.798;2023-05-16T01:15:08;12.60;99.90
12688;DHT22;6408;59.388;17.798;2023-05-16T01:17:45;12.60;99.90
12688;DHT22;6408;59.388;17.798;2023-05-16T01:20:24;12.60;99.90
12688;DHT22;6408;59.388;17.798;2023-05-16T01:23:12;12.60;99.90
12688;DHT22;6408;59.388;17.798;2023-05-16T01:25:56;12.70;99.90
12688;DHT22;6408;59.388;17.798;2023-05-16T01:28:26;12.60;99.90
12688;DHT22;6408;59.388;17.798;2023-05-16T01:30:54;12.60;99.90
12688;DHT22;6408;59.388;17.798;2023-05-16T01:33:22;12.60;99.90
12688;DHT22;6408;59.388;17.798;2023-05-16T01:35:54;12.60;99.90
12688;DHT22;6408;59.388;17.798;2023-05-16T01:38:26;12.60;99.90
12688;DHT22;6408;59.388;17.798;2023-05-16T01:41:00;12.70;99.90
12688;DHT22;6408;59.388;17.798;2023-05-16T01:43:33;12.60;99.90
12688;DHT22;6408;59.388;17.798;2023-05-16T01:46:06;12.80;99.90
12688;DHT22;6408;59.388;17.798;2023-05-16T01:48:43;12.70;99.90
12688;DHT22;6408;59.388;17.798;2023-05-16T01:51:18;12.80;99.90
12688;DHT22;6408;59.388;17.798;2023-05-16T01:53:48;12.80;99.90
12688;DHT22;6408;59.388;17.798;2023-05-16T01:56:16;12.90;99.90
12688;DHT22;6408;59.388;17.798;2023-05-16T01:58:47;12.90;99.90
12688;DHT22;6408;59.388;17.798;2023-05-16T02:01:16;13.00;99.90
12688;DHT22;6408;59.388;17.798;2023-05-16T02:03:44;13.00;99.90
12688;DHT22;6408;59.388;17.798;2023-05-16T02:06:11;13.00;99.90
12688;DHT22;6408;59.388;17.798;2023-05-16T02:08:38;13.00;99.90
12688;DHT22;6408;59.388;17.798;2023-05-16T02:11:06;13.10;99.90
12688;DHT22;6408;59.388;17.798;2023-05-16T02:13:33;13.00;99.90
12688;DHT22;6408;59.388;17.798;2023-05-16T02:16:03;13.00;99.90
12688;DHT22;6408;59.388;17.798;2023-05-16T02:18:30;13.00;99.90
12688;DHT22;6408;59.388;17.798;2023-05-16T02:20:58;13.00;99.90
12688;DHT22;6408;59.388;17.798;2023-05-16T02:23:25;13.00;99.90
12688;DHT22;6408;59.388;17.798;2023-05-16T02:25:54;13.10;99.90
12688;DHT22;6408;59.388;17.798;2023-05-16T02:28:22;13.10;99.90
12688;DHT22;6408;59.388;17.798;2023-05-16T02:30:55;13.10;99.90
12688;DHT22;6408;59.388;17.798;2023-05-16T02:33:25;13.20;99.90
12688;DHT22;6408;59.388;17.798;2023-05-16T02:35:53;13.10;99.90
12688;DHT22;6408;59.388;17.798;2023-05-16T02:38:21;13.20;99.90
12688;DHT22;6408;59.388;17.798;2023-05-16T02:40:48;13.20;99.90
12688;DHT22;6408;59.388;17.798;2023-05-16T02:43:16;13.20;99.90
12688;DHT22;6408;59.388;17.798;2023-05-16T02:45:43;13.10;99.90
12688;DHT22;6408;59.388;17.798;2023-05-16T02:48:10;13.10;99.90
12688;DHT22;6408;59.388;17.798;2023-05-16T02:50:40;13.10;99.90
12688;DHT22;6408;59.388;17.798;2023-05-16T02:53:08;13.10;99.90
12688;DHT22;6408;59.388;17.798;2023-05-16T02:55:35;13.00;99.90
12688;DHT22;6408;59.388;17.798;2023-05-16T02:58:02;13.00;99.90
12688;DHT22;6408;59.388;17.798;2023-05-16T03:00:29;13.00;99.90
12688;DHT22;6408;59.388;17.798;2023-05-16T03:02:57;12.90;99.90
12688;DHT22;6408;59.388;17.798;2023-05-16T03:05:25;12.90;99.90
12688;DHT22;6408;59.388;17.798;2023-05-16T03:07:54;12.90;99.90
12688;DHT22;6408;59.388;17.798;2023-05-16T03:10:22;12.90;99.90
12688;DHT22;6408;59.388;17.798;2023-05-16T03:12:49;12.90;99.90
12688;DHT22;6408;59.388;17.798;2023-05-16T03:15:16;12.90;99.90
12688;DHT22;6408;59.388;17.798;2023-05-16T03:17:44;12.90;99.90
12688;DHT22;6408;59.388;17.798;2023-05-16T03:20:11;12.90;99.90
12688;DHT22;6408;59.388;17.798;2023-05-16T03:22:40;12.90;99.90
12688;DHT22;6408;59.388;17.798;2023-05-16T03:25:11;12.90;99.90
12688;DHT22;6408;59.388;17.798;2023-05-16T03:27:38;13.00;99.90
12688;DHT22;6408;59.388;17.798;2023-05-16T03:30:07;13.00;99.90
12688;DHT22;6408;59.388;17.798;2023-05-16T03:32:36;12.90;99.90
12688;DHT22;6408;59.388;17.798;2023-05-16T03:35:04;12.90;99.90
12688;DHT22;6408;59.388;17.798;2023-05-16T03:37:32;13.00;99.90
12688;DHT22;6408;59.388;17.798;2023-05-16T03:40:00;13.00;99.90
12688;DHT22;6408;59.388;17.798;2023-05-16T03:42:31;13.00;99.90
12688;DHT22;6408;59.388;17.798;2023-05-16T03:44:59;13.10;99.90
12688;DHT22;6408;59.388;17.798;2023-05-16T03:47:27;13.00;99.90
12688;DHT22;6408;59.388;17.798;2023-05-16T03:49:56;13.00;99.90
12688;DHT22;6408;59.388;17.798;2023-05-16T03:52:24;13.00;99.90
12688;DHT22;6408;59.388;17.798;2023-05-16T03:54:51;13.00;99.90
12688;DHT22;6408;59.388;17.798;2023-05-16T03:57:19;12.90;99.90
12688;DHT22;6408;59.388;17.798;2023-05-16T03:59:48;12.90;99.90
12688;DHT22;6408;59.388;17.798;2023-05-16T04:02:16;13.00;99.90
12688;DHT22;6408;59.388;17.798;2023-05-16T04:04:43;13.20;99.90
12688;DHT22;6408;59.388;17.798;2023-05-16T04:07:12;13.10;99.90
12688;DHT22;6408;59.388;17.798;2023-05-16T04:09:39;13.10;99.90
12688;DHT22;6408;59.388;17.798;2023-05-16T04:12:07;13.20;99.90
12688;DHT22;6408;59.388;17.798;2023-05-16T04:14:35;13.20;99.90
12688;DHT22;6408;59.388;17.798;2023-05-16T04:17:04;13.20;99.90
12688;DHT22;6408;59.388;17.798;2023-05-16T04:19:32;13.30;99.90
12688;DHT22;6408;59.388;17.798;2023-05-16T04:22:00;13.30;99.90
12688;DHT22;6408;59.388;17.798;2023-05-16T04:24:27;13.30;99.90
12688;DHT22;6408;59.388;17.798;2023-05-16T04:26:55;13.20;99.90
12688;DHT22;6408;59.388;17.798;2023-05-16T04:29:22;13.20;99.90
12688;DHT22;6408;59.388;17.798;2023-05-16T04:31:50;13.30;99.90
12688;DHT22;6408;59.388;17.798;2023-05-16T04:34:19;13.20;99.90
12688;DHT22;6408;59.388;17.798;2023-05-16T04:36:47;13.20;99.90
12688;DHT22;6408;59.388;17.798;2023-05-16T04:39:15;13.20;99.90
12688;DHT22;6408;59.388;17.798;2023-05-16T04:41:43;13.20;99.90
12688;DHT22;6408;59.388;17.798;2023-05-16T04:44:11;13.20;99.90
12688;DHT22;6408;59.388;17.798;2023-05-16T04:46:38;13.20;99.90
12688;DHT22;6408;59.388;17.798;2023-05-16T04:49:06;13.20;99.90
12688;DHT22;6408;59.388;17.798;2023-05-16T04:51:35;13.20;99.90
12688;DHT22;6408;59.388;17.798;2023-05-16T04:54:02;13.20;99.90
12688;DHT22;6408;59.388;17.798;2023-05-16T04:56:30;13.20;99.90
12688;DHT22;6408;59.388;17.798;2023-05-16T04:58:57;13.20;99.90
12688;DHT22;6408;59.388;17.798;2023-05-16T05:01:25;13.10;99.90
12688;DHT22;6408;59.388;17.798;2023-05-16T05:03:52;13.10;99.90
12688;DHT22;6408;59.388;17.798;2023-05-16T05:06:20;13.10;99.90
12688;DHT22;6408;59.388;17.798;2023-05-16T05:08:50;13.00;99.90
12688;DHT22;6408;59.388;17.798;2023-05-16T05:11:17;13.00;99.90
12688;DHT22;6408;59.388;17.798;2023-05-16T05:13:45;13.00;99.90
12688;DHT22;6408;59.388;17.798;2023-05-16T05:16:13;13.00;99.90
12688;DHT22;6408;59.388;17.798;2023-05-16T05:18:40;13.10;99.90
12688;DHT22;6408;59.388;17.798;2023-05-16T05:21:09;13.00;99.90
12688;DHT22;6408;59.388;17.798;2023-05-16T05:23:36;13.00;99.90
12688;DHT22;6408;59.388;17.798;2023-05-16T05:26:05;12.90;99.90
12688;DHT22;6408;59.388;17.798;2023-05-16T05:28:33;12.90;99.90
12688;DHT22;6408;59.388;17.798;2023-05-16T05:31:02;12.80;99.90
12688;DHT22;6408;59.388;17.798;2023-05-16T05:33:30;12.90;99.90
12688;DHT22;6408;59.388;17.798;2023-05-16T05:35:57;12.80;99.90
12688;DHT22;6408;59.388;17.798;2023-05-16T05:38:25;12.70;99.90
12688;DHT22;6408;59.388;17.798;2023-05-16T05:40:53;12.70;99.90
12688;DHT22;6408;59.388;17.798;2023-05-16T05:43:32;12.80;99.90
12688;DHT22;6408;59.388;17.798;2023-05-16T05:46:00;12.80;99.90
12688;DHT22;6408;59.388;17.798;2023-05-16T05:48:27;12.80;99.90
12688;DHT22;6408;59.388;17.798;2023-05-16T05:50:57;12.80;99.90
12688;DHT22;6408;59.388;17.798;2023-05-16T05:53:25;12.70;99.90
12688;DHT22;6408;59.388;17.798;2023-05-16T05:55:52;12.70;99.90
12688;DHT22;6408;59.388;17.798;2023-05-16T05:58:20;12.70;99.90
12688;DHT22;6408;59.388;17.798;2023-05-16T06:00:50;12.70;99.90
12688;DHT22;6408;59.388;17.798;2023-05-16T06:03:18;12.70;99.90
12688;DHT22;6408;59.388;17.798;2023-05-16T06:05:46;12.70;99.90
12688;DHT22;6408;59.388;17.798;2023-05-16T06:08:14;12.70;99.90
12688;DHT22;6408;59.388;17.798;2023-05-16T06:10:41;12.70;99.90
12688;DHT22;6408;59.388;17.798;2023-05-16T06:13:09;12.70;99.90
12688;DHT22;6408;59.388;17.798;2023-05-16T06:15:36;12.70;99.90
12688;DHT22;6408;59.388;17.798;2023-05-16T06:18:06;12.70;99.90
12688;DHT22;6408;59.388;17.798;2023-05-16T06:20:33;12.80;99.90
12688;DHT22;6408;59.388;17.798;2023-05-16T06:23:00;12.80;99.90
12688;DHT22;6408;59.388;17.798;2023-05-16T06:25:28;12.80;99.90
12688;DHT22;6408;59.388;17.798;2023-05-16T06:27:55;12.80;99.90
12688;DHT22;6408;59.388;17.798;2023-05-16T06:30:22;12.80;99.90
12688;DHT22;6408;59.388;17.798;2023-05-16T06:32:50;12.90;99.90
12688;DHT22;6408;59.388;17.798;2023-05-16T06:35:22;12.90;99.90
12688;DHT22;6408;59.388;17.798;2023-05-16T06:37:49;12.90;99.90
12688;DHT22;6408;59.388;17.798;2023-05-16T06:40:17;12.90;99.90
12688;DHT22;6408;59.388;17.798;2023-05-16T06:42:44;13.00;99.90
12688;DHT22;6408;59.388;17.798;2023-05-16T06:45:12;13.10;99.90
12688;DHT22;6408;59.388;17.798;2023-05-16T06:47:39;13.20;99.90
12688;DHT22;6408;59.388;17.798;2023-05-16T06:50:08;13.20;99.90
12688;DHT22;6408;59.388;17.798;2023-05-16T06:52:37;13.20;99.90
12688;DHT22;6408;59.388;17.798;2023-05-16T06:55:05;13.20;99.90
12688;DHT22;6408;59.388;17.798;2023-05-16T06:57:32;13.30;99.90
12688;DHT22;6408;59.388;17.798;2023-05-16T07:00:12;13.30;99.90
12688;DHT22;6408;59.388;17.798;2023-05-16T07:02:40;13.40;99.90
12688;DHT22;6408;59.388;17.798;2023-05-16T07:05:08;13.50;99.90
12688;DHT22;6408;59.388;17.798;2023-05-16T07:07:37;13.50;99.90
12688;DHT22;6408;59.388;17.798;2023-05-16T07:10:05;13.40;99.90
12688;DHT22;6408;59.388;17.798;2023-05-16T07:12:34;13.40;99.90
12688;DHT22;6408;59.388;17.798;2023-05-16T07:15:02;13.40;99.90
12688;DHT22;6408;59.388;17.798;2023-05-16T07:17:30;13.50;99.90
12688;DHT22;6408;59.388;17.798;2023-05-16T07:19:58;13.40;99.90
12688;DHT22;6408;59.388;17.798;2023-05-16T07:22:26;13.40;99.90
12688;DHT22;6408;59.388;17.798;2023-05-16T07:24:56;13.40;99.90
12688;DHT22;6408;59.388;17.798;2023-05-16T07:27:27;13.40;99.90
12688;DHT22;6408;59.388;17.798;2023-05-16T07:29:56;13.50;99.90
12688;DHT22;6408;59.388;17.798;2023-05-16T07:32:24;13.50;99.90
12688;DHT22;6408;59.388;17.798;2023-05-16T07:34:51;13.40;99.90
12688;DHT22;6408;59.388;17.798;2023-05-16T07:37:19;13.30;99.90
12688;DHT22;6408;59.388;17.798;2023-05-16T07:39:46;13.30;99.90
12688;DHT22;6408;59.388;17.798;2023-05-16T07:42:16;13.20;99.90
12688;DHT22;6408;59.388;17.798;2023-05-16T07:44:43;13.10;99.90
12688;DHT22;6408;59.388;17.798;2023-05-16T07:47:11;13.00;99.90
12688;DHT22;6408;59.388;17.798;2023-05-16T07:49:38;13.00;99.90
12688;DHT22;6408;59.388;17.798;2023-05-16T07:52:06;12.90;99.90
12688;DHT22;6408;59.388;17.798;2023-05-16T07:54:34;12.90;99.90
12688;DHT22;6408;59.388;17.798;2023-05-16T07:57:02;13.00;99.90
12688;DHT22;6408;59.388;17.798;2023-05-16T07:59:31;13.10;99.90
12688;DHT22;6408;59.388;17.798;2023-05-16T08:01:59;13.20;99.90
12688;DHT22;6408;59.388;17.798;2023-05-16T08:04:26;13.10;99.90
12688;DHT22;6408;59.388;17.798;2023-05-16T08:06:54;13.10;99.90
12688;DHT22;6408;59.388;17.798;2023-05-16T08:09:21;13.20;99.90
12688;DHT22;6408;59.388;17.798;2023-05-16T08:11:48;13.30;99.90
12688;DHT22;6408;59.388;17.798;2023-05-16T08:14:16;13.30;99.90
12688;DHT22;6408;59.388;17.798;2023-05-16T08:16:46;13.30;99.90
12688;DHT22;6408;59.388;17.798;2023-05-16T08:19:13;13.30;99.90
12688;DHT22;6408;59.388;17.798;2023-05-16T08:21:41;13.40;99.90
12688;DHT22;6408;59.388;17.798;2023-05-16T08:24:09;13.60;99.90
12688;DHT22;6408;59.388;17.798;2023-05-16T08:26:37;13.70;99.90
12688;DHT22;6408;59.388;17.798;2023-05-16T08:29:04;13.80;99.90
12688;DHT22;6408;59.388;17.798;2023-05-16T08:31:32;13.80;99.90
12688;DHT22;6408;59.388;17.798;2023-05-16T08:34:02;13.90;99.90
12688;DHT22;6408;59.388;17.798;2023-05-16T08:36:31;14.20;99.90
12688;DHT22;6408;59.388;17.798;2023-05-16T08:39:00;14.40;99.90
12688;DHT22;6408;59.388;17.798;2023-05-16T08:41:28;14.70;99.90
12688;DHT22;6408;59.388;17.798;2023-05-16T08:43:56;14.80;99.90
12688;DHT22;6408;59.388;17.798;2023-05-16T08:46:24;14.90;99.90
12688;DHT22;6408;59.388;17.798;2023-05-16T08:48:58;15.00;99.90
12688;DHT22;6408;59.388;17.798;2023-05-16T08:51:32;14.90;99.90
12688;DHT22;6408;59.388;17.798;2023-05-16T08:54:03;14.70;99.90
12688;DHT22;6408;59.388;17.798;2023-05-16T08:56:33;14.70;99.90
12688;DHT22;6408;59.388;17.798;2023-05-16T08:59:02;14.80;99.90
12688;DHT22;6408;59.388;17.798;2023-05-16T09:01:30;14.80;99.90
12688;DHT22;6408;59.388;17.798;2023-05-16T09:03:59;14.80;99.90
12688;DHT22;6408;59.388;17.798;2023-05-16T09:06:29;14.90;99.90
12688;DHT22;6408;59.388;17.798;2023-05-16T09:08:56;14.90;99.90
12688;DHT22;6408;59.388;17.798;2023-05-16T09:11:24;15.00;99.90
12688;DHT22;6408;59.388;17.798;2023-05-16T09:13:51;15.00;99.90
12688;DHT22;6408;59.388;17.798;2023-05-16T09:16:19;14.90;99.90
12688;DHT22;6408;59.388;17.798;2023-05-16T09:18:53;14.90;99.90
12688;DHT22;6408;59.388;17.798;2023-05-16T09:21:26;14.80;99.90
12688;DHT22;6408;59.388;17.798;2023-05-16T09:23:56;14.80;99.90
12688;DHT22;6408;59.388;17.798;2023-05-16T09:26:30;14.70;99.90
12688;DHT22;6408;59.388;17.798;2023-05-16T09:29:02;14.70;99.90
12688;DHT22;6408;59.388;17.798;2023-05-16T09:31:36;14.60;99.90
12688;DHT22;6408;59.388;17.798;2023-05-16T09:34:06;14.50;99.90
12688;DHT22;6408;59.388;17.798;2023-05-16T09:36:35;14.40;99.90
12688;DHT22;6408;59.388;17.798;2023-05-16T09:39:05;14.20;99.90
12688;DHT22;6408;59.388;17.798;2023-05-16T09:41:34;14.20;99.90
12688;DHT22;6408;59.388;17.798;2023-05-16T09:44:05;14.40;99.90
12688;DHT22;6408;59.388;17.798;2023-05-16T09:46:35;14.40;99.90
12688;DHT22;6408;59.388;17.798;2023-05-16T09:49:04;14.60;99.90
12688;DHT22;6408;59.388;17.798;2023-05-16T09:51:32;14.70;99.90
12688;DHT22;6408;59.388;17.798;2023-05-16T09:53:59;14.70;99.90
12688;DHT22;6408;59.388;17.798;2023-05-16T09:56:30;14.90;99.90
12688;DHT22;6408;59.388;17.798;2023-05-16T09:58:57;14.90;99.90
12688;DHT22;6408;59.388;17.798;2023-05-16T10:01:26;14.90;99.90
12688;DHT22;6408;59.388;17.798;2023-05-16T10:03:54;14.80;99.90
12688;DHT22;6408;59.388;17.798;2023-05-16T10:06:22;14.70;99.90
12688;DHT22;6408;59.388;17.798;2023-05-16T10:08:50;14.50;99.90
12688;DHT22;6408;59.388;17.798;2023-05-16T10:11:17;14.40;99.90
12688;DHT22;6408;59.388;17.798;2023-05-16T10:13:52;14.30;99.90
12688;DHT22;6408;59.388;17.798;2023-05-16T10:16:21;14.20;99.90
12688;DHT22;6408;59.388;17.798;2023-05-16T10:18:50;14.20;99.90
12688;DHT22;6408;59.388;17.798;2023-05-16T10:21:18;14.20;99.90
12688;DHT22;6408;59.388;17.798;2023-05-16T10:23:49;14.20;99.90
12688;DHT22;6408;59.388;17.798;2023-05-16T10:26:19;14.20;99.90
12688;DHT22;6408;59.388;17.798;2023-05-16T10:28:50;14.10;99.90
12688;DHT22;6408;59.388;17.798;2023-05-16T10:31:18;14.00;99.90
12688;DHT22;6408;59.388;17.798;2023-05-16T10:33:47;14.10;99.90
12688;DHT22;6408;59.388;17.798;2023-05-16T10:36:18;14.20;99.90
12688;DHT22;6408;59.388;17.798;2023-05-16T10:38:46;14.30;99.90
12688;DHT22;6408;59.388;17.798;2023-05-16T10:41:14;14.40;99.90
12688;DHT22;6408;59.388;17.798;2023-05-16T10:43:44;14.30;99.90
12688;DHT22;6408;59.388;17.798;2023-05-16T10:46:25;14.40;99.90
12688;DHT22;6408;59.388;17.798;2023-05-16T10:48:53;14.50;99.90
12688;DHT22;6408;59.388;17.798;2023-05-16T10:51:35;14.40;99.90
12688;DHT22;6408;59.388;17.798;2023-05-16T10:54:10;14.40;99.90
12688;DHT22;6408;59.388;17.798;2023-05-16T10:56:40;14.40;99.90
12688;DHT22;6408;59.388;17.798;2023-05-16T10:59:22;14.40;99.90
12688;DHT22;6408;59.388;17.798;2023-05-16T11:01:54;14.60;99.90
12688;DHT22;6408;59.388;17.798;2023-05-16T11:04:22;14.40;99.90
12688;DHT22;6408;59.388;17.798;2023-05-16T11:06:51;14.40;99.90
12688;DHT22;6408;59.388;17.798;2023-05-16T11:09:25;14.40;99.90
12688;DHT22;6408;59.388;17.798;2023-05-16T11:11:58;14.40;99.90
12688;DHT22;6408;59.388;17.798;2023-05-16T11:14:34;14.30;99.90
12688;DHT22;6408;59.388;17.798;2023-05-16T11:17:10;14.30;99.90
12688;DHT22;6408;59.388;17.798;2023-05-16T11:19:42;14.20;99.90
12688;DHT22;6408;59.388;17.798;2023-05-16T11:22:25;14.10;99.90
12688;DHT22;6408;59.388;17.798;2023-05-16T11:24:58;14.00;99.90
12688;DHT22;6408;59.388;17.798;2023-05-16T11:27:28;14.00;99.90
12688;DHT22;6408;59.388;17.798;2023-05-16T11:30:00;14.00;99.90
12688;DHT22;6408;59.388;17.798;2023-05-16T11:32:33;14.00;99.90
12688;DHT22;6408;59.388;17.798;2023-05-16T11:35:01;14.10;99.90
12688;DHT22;6408;59.388;17.798;2023-05-16T11:37:30;14.10;99.90
12688;DHT22;6408;59.388;17.798;2023-05-16T11:39:58;14.20;99.90
12688;DHT22;6408;59.388;17.798;2023-05-16T11:42:29;14.20;99.90
12688;DHT22;6408;59.388;17.798;2023-05-16T11:45:04;14.40;99.90
12688;DHT22;6408;59.388;17.798;2023-05-16T11:47:35;14.50;99.90
12688;DHT22;6408;59.388;17.798;2023-05-16T11:50:05;14.70;99.90
12688;DHT22;6408;59.388;17.798;2023-05-16T11:52:33;14.70;99.90
12688;DHT22;6408;59.388;17.798;2023-05-16T11:55:01;14.70;99.90
12688;DHT22;6408;59.388;17.798;2023-05-16T11:57:29;14.60;99.90
12688;DHT22;6408;59.388;17.798;2023-05-16T12:00:01;14.50;99.90
12688;DHT22;6408;59.388;17.798;2023-05-16T12:02:34;14.50;99.90
12688;DHT22;6408;59.388;17.798;2023-05-16T12:05:06;14.60;99.90
12688;DHT22;6408;59.388;17.798;2023-05-16T12:07:35;14.60;99.90
12688;DHT22;6408;59.388;17.798;2023-05-16T12:10:04;14.60;99.90
12688;DHT22;6408;59.388;17.798;2023-05-16T12:12:32;14.60;99.90
12688;DHT22;6408;59.388;17.798;2023-05-16T12:15:00;14.70;99.90
12688;DHT22;6408;59.388;17.798;2023-05-16T12:17:29;14.70;99.90
12688;DHT22;6408;59.388;17.798;2023-05-16T12:19:58;14.70;99.90
12688;DHT22;6408;59.388;17.798;2023-05-16T12:22:26;14.70;99.90
12688;DHT22;6408;59.388;17.798;2023-05-16T12:24:54;14.80;99.90
12688;DHT22;6408;59.388;17.798;2023-05-16T12:27:23;14.90;99.90
12688;DHT22;6408;59.388;17.798;2023-05-16T12:29:51;15.10;99.90
12688;DHT22;6408;59.388;17.798;2023-05-16T12:32:19;15.10;99.90
12688;DHT22;6408;59.388;17.798;2023-05-16T12:34:48;15.30;99.90
12688;DHT22;6408;59.388;17.798;2023-05-16T12:37:20;15.40;99.90
12688;DHT22;6408;59.388;17.798;2023-05-16T12:39:48;15.60;99.90
12688;DHT22;6408;59.388;17.798;2023-05-16T12:42:16;15.60;99.90
12688;DHT22;6408;59.388;17.798;2023-05-16T12:44:44;15.40;99.90
12688;DHT22;6408;59.388;17.798;2023-05-16T12:47:12;15.40;99.90
12688;DHT22;6408;59.388;17.798;2023-05-16T12:49:44;15.30;99.90
12688;DHT22;6408;59.388;17.798;2023-05-16T12:52:19;15.30;99.90
12688;DHT22;6408;59.388;17.798;2023-05-16T12:54:47;15.20;99.90
12688;DHT22;6408;59.388;17.798;2023-05-16T12:57:15;15.20;99.90
12688;DHT22;6408;59.388;17.798;2023-05-16T12:59:44;15.20;99.90
12688;DHT22;6408;59.388;17.798;2023-05-16T13:02:11;15.30;99.90
12688;DHT22;6408;59.388;17.798;2023-05-16T13:04:40;15.30;99.90
12688;DHT22;6408;59.388;17.798;2023-05-16T13:07:07;15.40;99.90
12688;DHT22;6408;59.388;17.798;2023-05-16T13:09:37;15.40;99.90
12688;DHT22;6408;59.388;17.798;2023-05-16T13:12:06;15.60;99.90
12688;DHT22;6408;59.388;17.798;2023-05-16T13:14:34;15.70;99.90
12688;DHT22;6408;59.388;17.798;2023-05-16T13:17:01;15.90;99.90
12688;DHT22;6408;59.388;17.798;2023-05-16T13:19:29;16.00;99.90
12688;DHT22;6408;59.388;17.798;2023-05-16T13:21:57;16.00;99.90
12688;DHT22;6408;59.388;17.798;2023-05-16T13:24:24;16.00;99.90
12688;DHT22;6408;59.388;17.798;2023-05-16T13:26:56;16.10;99.90
12688;DHT22;6408;59.388;17.798;2023-05-16T13:29:24;16.00;99.90
12688;DHT22;6408;59.388;17.798;2023-05-16T13:31:51;15.90;99.90
12688;DHT22;6408;59.388;17.798;2023-05-16T13:34:19;15.80;99.90
12688;DHT22;6408;59.388;17.798;2023-05-16T13:36:46;15.70;99.90
12688;DHT22;6408;59.388;17.798;2023-05-16T13:39:14;15.60;99.90
12688;DHT22;6408;59.388;17.798;2023-05-16T13:41:43;15.60;99.90
12688;DHT22;6408;59.388;17.798;2023-05-16T13:44:12;15.60;99.90
12688;DHT22;6408;59.388;17.798;2023-05-16T13:46:39;15.60;99.90
12688;DHT22;6408;59.388;17.798;2023-05-16T13:49:07;15.50;99.90
12688;DHT22;6408;59.388;17.798;2023-05-16T13:51:35;15.50;99.90
12688;DHT22;6408;59.388;17.798;2023-05-16T13:54:02;15.60;99.90
12688;DHT22;6408;59.388;17.798;2023-05-16T13:56:32;15.70;99.90
12688;DHT22;6408;59.388;17.798;2023-05-16T13:59:00;15.60;99.90
12688;DHT22;6408;59.388;17.798;2023-05-16T14:01:29;15.60;99.90
12688;DHT22;6408;59.388;17.798;2023-05-16T14:03:57;15.50;99.90
12688;DHT22;6408;59.388;17.798;2023-05-16T14:06:25;15.40;99.90
12688;DHT22;6408;59.388;17.798;2023-05-16T14:08:53;15.50;99.90
12688;DHT22;6408;59.388;17.798;2023-05-16T14:11:20;15.60;99.90
12688;DHT22;6408;59.388;17.798;2023-05-16T14:13:51;15.60;99.90
12688;DHT22;6408;59.388;17.798;2023-05-16T14:16:19;15.60;99.90
12688;DHT22;6408;59.388;17.798;2023-05-16T14:18:50;15.40;99.90
12688;DHT22;6408;59.388;17.798;2023-05-16T14:21:18;15.40;99.90
12688;DHT22;6408;59.388;17.798;2023-05-16T14:23:47;15.20;99.90
12688;DHT22;6408;59.388;17.798;2023-05-16T14:26:14;15.00;99.90
12688;DHT22;6408;59.388;17.798;2023-05-16T14:28:47;15.10;99.90
12688;DHT22;6408;59.388;17.798;2023-05-16T14:31:14;15.10;99.90
12688;DHT22;6408;59.388;17.798;2023-05-16T14:33:42;15.10;99.90
12688;DHT22;6408;59.388;17.798;2023-05-16T14:36:12;15.20;99.90
12688;DHT22;6408;59.388;17.798;2023-05-16T14:38:40;15.20;99.90
12688;DHT22;6408;59.388;17.798;2023-05-16T14:41:08;15.30;99.90
12688;DHT22;6408;59.388;17.798;2023-05-16T14:43:36;15.30;99.90
12688;DHT22;6408;59.388;17.798;2023-05-16T14:46:04;15.30;99.90
12688;DHT22;6408;59.388;17.798;2023-05-16T14:48:32;15.40;99.90
12688;DHT22;6408;59.388;17.798;2023-05-16T14:50:59;15.60;99.90
12688;DHT22;6408;59.388;17.798;2023-05-16T14:53:29;15.60;99.90
12688;DHT22;6408;59.388;17.798;2023-05-16T14:55:57;15.80;99.90
12688;DHT22;6408;59.388;17.798;2023-05-16T14:58:27;15.90;99.90
12688;DHT22;6408;59.388;17.798;2023-05-16T15:00:56;15.90;99.90
12688;DHT22;6408;59.388;17.798;2023-05-16T15:03:23;15.90;99.90
12688;DHT22;6408;59.388;17.798;2023-05-16T15:05:51;15.90;99.90
12688;DHT22;6408;59.388;17.798;2023-05-16T15:08:19;15.70;99.90
12688;DHT22;6408;59.388;17.798;2023-05-16T15:10:48;15.60;99.90
12688;DHT22;6408;59.388;17.798;2023-05-16T15:13:16;15.50;99.90
12688;DHT22;6408;59.388;17.798;2023-05-16T15:15:44;15.40;99.90
12688;DHT22;6408;59.388;17.798;2023-05-16T15:18:11;15.30;99.90
12688;DHT22;6408;59.388;17.798;2023-05-16T15:20:38;15.30;99.90
12688;DHT22;6408;59.388;17.798;2023-05-16T15:23:06;15.20;99.90
12688;DHT22;6408;59.388;17.798;2023-05-16T15:25:34;15.10;99.90
12688;DHT22;6408;59.388;17.798;2023-05-16T15:28:05;15.10;99.90
12688;DHT22;6408;59.388;17.798;2023-05-16T15:30:32;15.00;99.90
12688;DHT22;6408;59.388;17.798;2023-05-16T15:32:59;15.00;99.90
12688;DHT22;6408;59.388;17.798;2023-05-16T15:35:28;15.00;99.90
12688;DHT22;6408;59.388;17.798;2023-05-16T15:37:55;15.00;99.90
12688;DHT22;6408;59.388;17.798;2023-05-16T15:40:24;15.00;99.90